createdAt,value
2019-02-02T00:00:31.211Z,38.23
2019-02-02T00:02:59.919Z,37.23
2019-02-02T00:05:28.390Z,31.73
2019-02-02T00:07:56.904Z,28.93
2019-02-02T00:10:25.683Z,34.23
2019-02-02T00:12:54.406Z,31.53
2019-02-02T00:15:23.209Z,28.73
2019-02-02T00:17:51.719Z,28.17
2019-02-02T00:20:20.555Z,29.63
2019-02-02T00:22:49.073Z,31.40
2019-02-02T00:25:17.879Z,30.60
2019-02-02T00:27:46.343Z,34.80
2019-02-02T00:30:16.947Z,36.40
2019-02-02T00:32:45.396Z,33.43
2019-02-02T00:35:13.931Z,39.10
2019-02-02T00:37:42.390Z,35.80
2019-02-02T00:40:14.022Z,33.60
2019-02-02T00:42:42.607Z,31.80
2019-02-02T00:45:14.203Z,36.60
2019-02-02T00:47:43.028Z,36.77
2019-02-02T00:50:13.778Z,35.43
2019-02-02T00:52:42.355Z,39.13
2019-02-02T00:55:16.183Z,36.27
2019-02-02T00:57:53.010Z,32.90
2019-02-02T01:00:18.144Z,39.10
2019-02-02T01:02:47.083Z,35.67
2019-02-02T01:05:17.882Z,36.07
2019-02-02T01:07:47.076Z,35.47
2019-02-02T01:10:24.523Z,43.33
2019-02-02T01:12:53.119Z,39.33
2019-02-02T01:15:21.784Z,44.57
2019-02-02T01:17:50.407Z,39.20
2019-02-02T01:20:20.646Z,45.27
2019-02-02T01:22:49.403Z,49.40
2019-02-02T01:25:18.075Z,45.00
2019-02-02T01:27:46.993Z,49.83
2019-02-02T01:30:21.151Z,45.43
2019-02-02T01:32:49.932Z,37.27
2019-02-02T01:35:19.437Z,42.17
2019-02-02T01:37:48.337Z,48.23
2019-02-02T01:40:22.145Z,36.90
2019-02-02T01:42:50.763Z,39.53
2019-02-02T01:45:22.316Z,37.90
2019-02-02T01:47:50.901Z,39.17
2019-02-02T01:50:21.694Z,41.03
2019-02-02T01:52:50.313Z,37.20
2019-02-02T01:55:19.317Z,37.07
2019-02-02T01:57:47.970Z,36.47
2019-02-02T02:00:28.307Z,35.63
2019-02-02T02:02:56.808Z,36.83
2019-02-02T02:05:25.818Z,42.53
2019-02-02T02:07:54.773Z,41.27
2019-02-02T02:10:23.399Z,36.23
2019-02-02T02:12:52.458Z,37.40
2019-02-02T02:15:21.403Z,45.63
2019-02-02T02:17:50.093Z,39.80
2019-02-02T02:20:19.840Z,36.97
2019-02-02T02:22:49.827Z,41.53
2019-02-02T02:25:20.435Z,47.10
2019-02-02T02:27:49.579Z,46.30
2019-02-02T02:30:22.439Z,41.70
2019-02-02T02:32:52.273Z,38.90
2019-02-02T02:35:20.941Z,44.20
2019-02-02T02:37:49.661Z,38.50
2019-02-02T02:40:20.219Z,42.50
2019-02-02T02:42:49.321Z,45.57
2019-02-02T02:45:18.460Z,38.73
2019-02-02T02:47:47.602Z,41.83
2019-02-02T02:50:18.037Z,53.03
2019-02-02T02:52:46.690Z,47.57
2019-02-02T02:55:16.482Z,49.00
2019-02-02T02:57:45.771Z,47.03
2019-02-02T03:00:25.933Z,42.43
2019-02-02T03:02:55.318Z,51.37
2019-02-02T03:05:24.221Z,53.03
2019-02-02T03:07:54.667Z,45.23
2019-02-02T03:10:25.489Z,44.70
2019-02-02T03:12:55.342Z,45.03
2019-02-02T03:15:23.925Z,42.60
2019-02-02T03:17:53.600Z,42.00
2019-02-02T03:20:22.402Z,45.77
2019-02-02T03:22:51.685Z,42.47
2019-02-02T03:25:22.984Z,43.23
2019-02-02T03:27:52.105Z,44.63
2019-02-02T03:30:21.975Z,41.83
2019-02-02T03:32:50.716Z,43.07
2019-02-02T03:35:23.870Z,41.00
2019-02-02T03:37:53.025Z,44.53
2019-02-02T03:40:23.715Z,40.50
2019-02-02T03:42:52.979Z,46.00
2019-02-02T03:45:25.565Z,48.63
2019-02-02T03:47:54.879Z,42.03
2019-02-02T03:50:23.660Z,54.33
2019-02-02T03:52:53.009Z,43.50
2019-02-02T03:55:21.955Z,47.47
2019-02-02T03:57:50.636Z,44.33
2019-02-02T04:00:21.285Z,42.80
2019-02-02T04:02:49.972Z,49.93
2019-02-02T04:05:21.251Z,48.20
2019-02-02T04:07:50.109Z,42.37
2019-02-02T04:10:19.225Z,48.53
2019-02-02T04:12:48.200Z,51.20
2019-02-02T04:15:19.226Z,57.03
2019-02-02T04:17:47.976Z,43.77
2019-02-02T04:20:19.109Z,48.50
2019-02-02T04:22:47.980Z,48.17
2019-02-02T04:25:17.604Z,50.90
2019-02-02T04:27:46.377Z,46.17
2019-02-02T04:30:26.329Z,57.00
2019-02-02T04:32:55.047Z,55.23
2019-02-02T04:35:24.399Z,52.67
2019-02-02T04:37:53.165Z,48.67
2019-02-02T04:40:23.294Z,50.47
2019-02-02T04:42:52.025Z,43.60
2019-02-02T04:45:20.747Z,48.40
2019-02-02T04:47:49.759Z,48.13
2019-02-02T04:50:21.624Z,46.60
2019-02-02T04:52:50.671Z,44.30
2019-02-02T04:55:20.153Z,46.73
2019-02-02T04:57:49.469Z,49.67
2019-02-02T05:00:20.643Z,47.93
2019-02-02T05:02:49.410Z,48.03
2019-02-02T05:05:18.830Z,49.07
2019-02-02T05:07:47.587Z,45.93
2019-02-02T05:10:23.690Z,47.93
2019-02-02T05:12:52.747Z,50.97
2019-02-02T05:15:21.607Z,51.43
2019-02-02T05:17:50.299Z,48.50
2019-02-02T05:20:20.284Z,48.00
2019-02-02T05:22:48.962Z,44.73
2019-02-02T05:25:18.235Z,47.43
2019-02-02T05:27:46.895Z,43.70
2019-02-02T05:30:21.517Z,44.73
2019-02-02T05:32:50.634Z,49.70
2019-02-02T05:35:19.364Z,49.37
2019-02-02T05:37:48.219Z,49.07
2019-02-02T05:40:19.679Z,51.07
2019-02-02T05:42:48.370Z,49.40
2019-02-02T05:45:20.084Z,56.10
2019-02-02T05:47:48.963Z,47.70
2019-02-02T05:50:20.232Z,46.90
2019-02-02T05:52:49.256Z,49.10
2019-02-02T05:55:19.642Z,45.80
2019-02-02T05:57:48.727Z,46.23
2019-02-02T06:00:24.795Z,51.30
2019-02-02T06:02:53.455Z,46.30
2019-02-02T06:05:22.312Z,47.70
2019-02-02T06:07:50.846Z,54.30
2019-02-02T06:10:20.250Z,48.73
2019-02-02T06:12:48.708Z,51.90
2019-02-02T06:15:17.722Z,55.37
2019-02-02T06:17:46.260Z,47.67
2019-02-02T06:20:16.405Z,49.33
2019-02-02T06:22:45.366Z,50.40
2019-02-02T06:25:15.384Z,48.13
2019-02-02T06:27:44.421Z,51.50
2019-02-02T06:30:23.771Z,48.43
2019-02-02T06:32:52.357Z,44.23
2019-02-02T06:35:20.964Z,48.80
2019-02-02T06:37:49.607Z,50.83
2019-02-02T06:40:18.798Z,53.63
2019-02-02T06:42:47.661Z,57.23
2019-02-02T06:45:22.199Z,56.50
2019-02-02T06:47:50.655Z,51.90
2019-02-02T06:50:19.108Z,52.03
2019-02-02T06:52:47.826Z,52.23
2019-02-02T06:55:17.000Z,51.70
2019-02-02T06:57:45.536Z,50.20
2019-02-02T07:00:19.399Z,54.27
2019-02-02T07:02:48.390Z,56.60
2019-02-02T07:05:16.952Z,49.80
2019-02-02T07:07:45.650Z,53.93
2019-02-02T07:10:17.387Z,55.43
2019-02-02T07:12:45.846Z,52.77
2019-02-02T07:15:21.955Z,52.57
2019-02-02T07:17:50.673Z,57.47
2019-02-02T07:20:19.166Z,56.93
2019-02-02T07:22:47.689Z,57.60
2019-02-02T07:25:16.182Z,53.27
2019-02-02T07:27:44.694Z,53.77
2019-02-02T07:30:27.600Z,50.93
2019-02-02T07:32:47.094Z,53.03
2019-02-02T07:35:16.021Z,51.47
2019-02-02T07:37:44.477Z,55.53
2019-02-02T07:40:15.402Z,57.57
2019-02-02T07:42:44.120Z,52.30
2019-02-02T07:45:20.755Z,50.13
2019-02-02T07:47:49.216Z,53.73
2019-02-02T07:50:18.299Z,58.33
2019-02-02T07:52:47.091Z,62.40
2019-02-02T07:55:17.571Z,51.30
2019-02-02T07:57:46.262Z,51.90
2019-02-02T08:00:18.267Z,57.83
2019-02-02T08:02:47.106Z,50.07
2019-02-02T08:05:15.555Z,63.43
2019-02-02T08:07:44.030Z,53.00
2019-02-02T08:10:13.831Z,54.47
2019-02-02T08:12:42.673Z,60.70
2019-02-02T08:15:14.338Z,54.13
2019-02-02T08:17:43.052Z,53.53
2019-02-02T08:20:13.607Z,52.20
2019-02-02T08:22:42.110Z,51.70
2019-02-02T08:25:13.744Z,55.33
2019-02-02T08:27:42.254Z,52.03
2019-02-02T08:30:19.582Z,57.20
2019-02-02T08:32:48.129Z,53.40
2019-02-02T08:35:16.686Z,56.13
2019-02-02T08:37:45.167Z,50.27
2019-02-02T08:40:16.747Z,55.97
2019-02-02T08:42:45.382Z,58.80
2019-02-02T08:45:15.068Z,67.90
2019-02-02T08:47:43.575Z,70.53
2019-02-02T08:50:32.894Z,58.07
2019-02-02T08:53:01.433Z,58.83
2019-02-02T08:55:30.085Z,51.90
2019-02-02T08:57:58.749Z,55.70
2019-02-02T09:00:27.370Z,50.80
2019-02-02T09:02:56.021Z,52.07
2019-02-02T09:05:24.838Z,70.27
2019-02-02T09:07:53.643Z,54.70
2019-02-02T09:10:24.939Z,54.00
2019-02-02T09:12:53.890Z,57.20
2019-02-02T09:15:22.833Z,55.83
2019-02-02T09:17:51.482Z,56.23
2019-02-02T09:20:20.376Z,53.90
2019-02-02T09:22:49.056Z,56.20
2019-02-02T09:25:19.298Z,57.90
2019-02-02T09:27:48.147Z,62.60
2019-02-02T09:30:28.328Z,56.30
2019-02-02T09:32:57.006Z,53.80
2019-02-02T09:35:25.694Z,62.70
2019-02-02T09:37:54.590Z,56.47
2019-02-02T09:40:25.453Z,57.47
2019-02-02T09:42:53.949Z,57.10
2019-02-02T09:45:23.993Z,55.30
2019-02-02T09:47:52.686Z,60.33
2019-02-02T09:50:26.336Z,60.17
2019-02-02T09:52:55.061Z,60.17
2019-02-02T09:55:25.073Z,62.90
2019-02-02T09:57:55.883Z,56.63
2019-02-02T10:00:29.212Z,55.90
2019-02-02T10:02:58.009Z,56.63
2019-02-02T10:05:26.892Z,69.33
2019-02-02T10:07:55.564Z,57.43
2019-02-02T10:10:29.428Z,57.97
2019-02-02T10:12:58.069Z,68.40
2019-02-02T10:15:27.049Z,65.87
2019-02-02T10:17:55.760Z,61.20
2019-02-02T10:20:26.311Z,65.93
2019-02-02T10:22:55.453Z,68.77
2019-02-02T10:25:26.219Z,65.10
2019-02-02T10:27:55.225Z,63.67
2019-02-02T10:30:32.648Z,63.53
2019-02-02T10:33:01.868Z,63.03
2019-02-02T10:35:30.587Z,64.57
2019-02-02T10:37:59.543Z,62.50
2019-02-02T10:40:30.148Z,53.67
2019-02-02T10:42:58.720Z,70.67
2019-02-02T10:45:28.094Z,62.77
2019-02-02T10:47:56.967Z,67.07
2019-02-02T10:50:27.964Z,62.50
2019-02-02T10:52:56.767Z,60.83
2019-02-02T10:55:25.617Z,66.07
2019-02-02T10:57:54.252Z,64.27
2019-02-02T11:00:28.528Z,65.83
2019-02-02T11:02:57.304Z,67.03
2019-02-02T11:05:26.195Z,63.00
2019-02-02T11:07:55.083Z,67.27
2019-02-02T11:10:29.003Z,67.97
2019-02-02T11:12:57.924Z,66.23
2019-02-02T11:15:26.977Z,70.67
2019-02-02T11:17:55.806Z,70.37
2019-02-02T11:20:29.274Z,67.23
2019-02-02T11:22:58.636Z,64.03
2019-02-02T11:25:27.249Z,69.43
2019-02-02T11:27:56.185Z,75.47
2019-02-02T11:30:25.513Z,71.97
2019-02-02T11:32:54.203Z,72.73
2019-02-02T11:35:23.801Z,67.83
2019-02-02T11:37:52.677Z,71.13
2019-02-02T11:40:24.391Z,67.57
2019-02-02T11:42:52.974Z,71.60
2019-02-02T11:45:21.787Z,80.33
2019-02-02T11:47:50.567Z,83.67
2019-02-02T11:50:20.736Z,82.43
2019-02-02T11:52:49.578Z,80.17
2019-02-02T11:55:19.933Z,80.60
2019-02-02T11:57:50.098Z,69.23
2019-02-02T12:00:21.481Z,81.07
2019-02-02T12:02:50.072Z,71.83
2019-02-02T12:05:18.773Z,76.80
2019-02-02T12:07:47.559Z,73.90
2019-02-02T12:10:21.640Z,83.30
2019-02-02T12:12:50.273Z,77.40
2019-02-02T12:15:19.562Z,78.53
2019-02-02T12:17:49.144Z,80.77
2019-02-02T12:20:19.234Z,80.30
2019-02-02T12:22:47.812Z,82.50
2019-02-02T12:25:16.998Z,78.10
2019-02-02T12:27:46.022Z,83.07
2019-02-02T12:30:23.152Z,85.47
2019-02-02T12:32:51.692Z,90.97
2019-02-02T12:35:22.616Z,86.47
2019-02-02T12:37:51.186Z,79.97
2019-02-02T12:40:21.745Z,75.37
2019-02-02T12:42:50.284Z,76.80
2019-02-02T12:45:24.802Z,87.57
2019-02-02T12:47:53.521Z,80.00
2019-02-02T12:50:22.147Z,83.00
2019-02-02T12:52:50.678Z,87.93
2019-02-02T12:55:19.224Z,91.83
2019-02-02T12:57:48.026Z,83.43
2019-02-02T13:00:20.765Z,80.53
2019-02-02T13:02:49.380Z,84.97
2019-02-02T13:05:20.455Z,80.13
2019-02-02T13:07:49.133Z,82.77
2019-02-02T13:10:20.375Z,87.57
2019-02-02T13:12:48.910Z,86.70
2019-02-02T13:15:17.627Z,85.63
2019-02-02T13:17:46.085Z,97.03
2019-02-02T13:20:16.266Z,90.23
2019-02-02T13:22:44.889Z,99.80
2019-02-02T13:25:16.002Z,92.27
2019-02-02T13:27:44.452Z,95.30
2019-02-02T13:30:16.272Z,104.10
2019-02-02T13:32:49.994Z,102.13
2019-02-02T13:35:16.990Z,100.07
2019-02-02T13:37:45.757Z,89.73
2019-02-02T13:40:16.951Z,92.40
2019-02-02T13:42:45.457Z,100.37
2019-02-02T13:45:15.556Z,93.97
2019-02-02T13:47:44.091Z,95.07
2019-02-02T13:50:15.113Z,99.70
2019-02-02T13:52:43.683Z,102.03
2019-02-02T13:55:12.280Z,91.07
2019-02-02T13:57:40.832Z,98.20
2019-02-02T14:00:20.867Z,96.43
2019-02-02T14:03:01.470Z,103.00
2019-02-02T14:05:19.878Z,96.27
2019-02-02T14:07:48.390Z,95.77
2019-02-02T14:10:20.224Z,99.50
2019-02-02T14:12:48.742Z,92.67
2019-02-02T14:15:17.267Z,100.23
2019-02-02T14:17:46.807Z,105.70
2019-02-02T14:20:15.943Z,98.60
2019-02-02T14:22:44.938Z,91.90
2019-02-02T14:25:17.834Z,96.03
2019-02-02T14:27:46.733Z,95.10
2019-02-02T14:30:18.076Z,95.23
2019-02-02T14:32:46.721Z,94.90
2019-02-02T14:35:17.975Z,96.07
2019-02-02T14:37:46.761Z,99.37
2019-02-02T14:40:17.409Z,106.93
2019-02-02T14:42:46.200Z,98.53
2019-02-02T14:45:17.231Z,102.53
2019-02-02T14:47:46.329Z,99.20
2019-02-02T14:50:18.998Z,100.20
2019-02-02T14:52:48.526Z,102.03
2019-02-02T14:55:19.695Z,93.07
2019-02-02T14:57:48.215Z,104.57
2019-02-02T15:00:19.077Z,104.10
2019-02-02T15:02:47.769Z,107.70
2019-02-02T15:05:16.528Z,103.27
2019-02-02T15:07:45.248Z,103.77
2019-02-02T15:10:14.943Z,98.60
2019-02-02T15:12:43.407Z,98.53
2019-02-02T15:15:14.568Z,100.63
2019-02-02T15:17:44.568Z,101.37
2019-02-02T15:20:25.123Z,104.03
2019-02-02T15:22:53.636Z,96.67
2019-02-02T15:25:22.479Z,103.77
2019-02-02T15:27:50.938Z,92.47
2019-02-02T15:30:22.143Z,99.80
2019-02-02T15:32:50.938Z,96.07
2019-02-02T15:35:19.686Z,104.63
2019-02-02T15:37:48.853Z,115.90
2019-02-02T15:40:20.872Z,98.80
2019-02-02T15:42:49.400Z,97.73
2019-02-02T15:45:23.033Z,97.87
2019-02-02T15:47:51.538Z,102.27
2019-02-02T15:50:20.164Z,94.17
2019-02-02T15:52:48.645Z,104.87
2019-02-02T15:55:19.658Z,102.03
2019-02-02T15:57:48.285Z,92.63
2019-02-02T16:00:22.177Z,101.60
2019-02-02T16:02:50.799Z,96.97
2019-02-02T16:05:20.589Z,100.07
2019-02-02T16:07:49.275Z,107.10
2019-02-02T16:10:23.662Z,102.83
2019-02-02T16:12:52.976Z,93.30
2019-02-02T16:15:21.663Z,97.33
2019-02-02T16:17:50.346Z,105.47
2019-02-02T16:20:24.553Z,98.17
2019-02-02T16:22:53.048Z,103.57
2019-02-02T16:25:21.936Z,113.70
2019-02-02T16:27:50.441Z,107.23
2019-02-02T16:30:24.595Z,99.97
2019-02-02T16:32:53.205Z,106.83
2019-02-02T16:35:21.822Z,105.20
2019-02-02T16:37:50.472Z,108.07
2019-02-02T16:40:26.330Z,107.67
2019-02-02T16:42:54.946Z,108.50
2019-02-02T16:45:25.883Z,106.63
2019-02-02T16:47:54.842Z,113.20
2019-02-02T16:50:23.633Z,108.97
2019-02-02T16:52:52.550Z,105.70
2019-02-02T16:55:21.420Z,109.30
2019-02-02T16:57:50.110Z,103.43
2019-02-02T17:00:21.794Z,106.30
2019-02-02T17:02:50.858Z,114.57
2019-02-02T17:05:19.688Z,96.53
2019-02-02T17:07:48.290Z,104.83
2019-02-02T17:10:22.166Z,103.83
2019-02-02T17:12:50.777Z,102.17
2019-02-02T17:15:19.917Z,104.27
2019-02-02T17:17:48.444Z,99.97
2019-02-02T17:20:28.660Z,100.90
2019-02-02T17:22:57.387Z,123.70
2019-02-02T17:25:26.267Z,98.93
2019-02-02T17:27:55.078Z,93.00
2019-02-02T17:30:25.414Z,102.00
2019-02-02T17:32:56.409Z,102.23
2019-02-02T17:35:25.163Z,96.77
2019-02-02T17:37:53.927Z,103.47
2019-02-02T17:40:25.156Z,99.17
2019-02-02T17:42:53.631Z,110.60
2019-02-02T17:45:23.144Z,97.77
2019-02-02T17:47:51.663Z,95.97
2019-02-02T17:50:27.668Z,95.80
2019-02-02T17:52:56.599Z,99.47
2019-02-02T17:55:25.047Z,98.60
2019-02-02T17:57:53.575Z,96.60
2019-02-02T18:00:29.513Z,105.67
2019-02-02T18:02:57.983Z,99.13
2019-02-02T18:05:26.751Z,101.67
2019-02-02T18:07:55.662Z,95.83
2019-02-02T18:10:24.457Z,97.00
2019-02-02T18:12:53.138Z,95.87
2019-02-02T18:15:22.088Z,110.10
2019-02-02T18:17:50.721Z,110.30
2019-02-02T18:20:19.811Z,108.47
2019-02-02T18:22:48.932Z,116.17
2019-02-02T18:25:18.723Z,111.37
2019-02-02T18:27:48.336Z,110.27
2019-02-02T18:30:19.835Z,99.63
2019-02-02T18:32:49.195Z,106.10
2019-02-02T18:35:19.266Z,105.97
2019-02-02T18:37:48.313Z,104.57
2019-02-02T18:40:22.410Z,105.07
2019-02-02T18:42:52.148Z,96.93
2019-02-02T18:45:24.283Z,106.57
2019-02-02T18:47:53.834Z,92.70
2019-02-02T18:50:23.517Z,115.23
2019-02-02T18:52:54.434Z,93.27
2019-02-02T18:55:29.064Z,102.60
2019-02-02T18:57:58.174Z,106.60
2019-02-02T19:00:27.251Z,110.50
2019-02-02T19:02:56.366Z,107.73
2019-02-02T19:05:25.511Z,113.93
2019-02-02T19:07:55.158Z,112.43
2019-02-02T19:10:30.056Z,100.97
2019-02-02T19:12:59.313Z,100.50
2019-02-02T19:15:29.124Z,93.70
2019-02-02T19:18:03.280Z,103.27
2019-02-02T19:20:32.513Z,98.57
2019-02-02T19:23:02.195Z,105.10
2019-02-02T19:25:31.205Z,97.17
2019-02-02T19:28:00.491Z,100.93
2019-02-02T19:30:33.007Z,101.43
2019-02-02T19:33:02.045Z,105.60
2019-02-02T19:35:31.296Z,99.80
2019-02-02T19:38:00.713Z,100.27
2019-02-02T19:40:29.648Z,95.50
2019-02-02T19:42:58.958Z,101.73
2019-02-02T19:45:28.874Z,97.60
2019-02-02T19:47:57.594Z,85.57
2019-02-02T19:50:27.980Z,93.50
2019-02-02T19:52:56.790Z,93.87
2019-02-02T19:55:25.558Z,89.17
2019-02-02T19:57:54.595Z,86.50
2019-02-02T20:00:32.632Z,91.53
2019-02-02T20:03:02.604Z,86.30
2019-02-02T20:05:31.907Z,82.63
2019-02-02T20:08:00.920Z,84.20
2019-02-02T20:10:30.015Z,83.30
2019-02-02T20:12:58.965Z,81.30
2019-02-02T20:15:29.219Z,82.97
2019-02-02T20:18:09.854Z,85.23
2019-02-02T20:20:32.745Z,90.40
2019-02-02T20:23:01.833Z,92.27
2019-02-02T20:25:31.038Z,97.87
2019-02-02T20:28:00.197Z,91.57
2019-02-02T20:30:33.177Z,95.33
2019-02-02T20:33:02.314Z,96.13
2019-02-02T20:35:40.783Z,107.70
2019-02-02T20:38:02.037Z,88.23
2019-02-02T20:40:31.136Z,98.10
2019-02-02T20:42:59.932Z,94.67
2019-02-02T20:45:32.718Z,93.30
2019-02-02T20:48:02.011Z,103.47
2019-02-02T20:50:31.610Z,89.23
2019-02-02T20:53:01.248Z,102.30
2019-02-02T20:55:35.840Z,91.43
2019-02-02T20:58:05.985Z,103.50
2019-02-02T21:00:35.644Z,95.17
2019-02-02T21:03:04.885Z,102.23
2019-02-02T21:05:33.992Z,98.37
2019-02-02T21:08:03.283Z,95.63
2019-02-02T21:10:32.279Z,102.90
2019-02-02T21:13:01.178Z,100.67
2019-02-02T21:15:30.363Z,93.70
2019-02-02T21:18:00.079Z,105.30
2019-02-02T21:20:30.611Z,99.23
2019-02-02T21:22:59.817Z,98.80
2019-02-02T21:25:29.006Z,103.17
2019-02-02T21:27:58.360Z,105.07
2019-02-02T21:30:33.801Z,96.07
2019-02-02T21:33:03.583Z,96.27
2019-02-02T21:35:35.626Z,107.37
2019-02-02T21:38:05.120Z,95.40
2019-02-02T21:40:35.780Z,96.83
2019-02-02T21:43:06.295Z,99.83
2019-02-02T21:45:35.789Z,90.07
2019-02-02T21:48:04.837Z,96.07
2019-02-02T21:50:33.788Z,98.57
2019-02-02T21:53:03.019Z,102.37
2019-02-02T21:55:31.913Z,106.50
2019-02-02T21:58:00.676Z,103.57
2019-02-02T22:00:37.867Z,92.30
2019-02-02T22:03:07.435Z,99.07
2019-02-02T22:05:36.211Z,101.67
2019-02-02T22:08:06.133Z,92.43
2019-02-02T22:10:35.232Z,105.93
2019-02-02T22:13:04.518Z,106.20
2019-02-02T22:15:33.327Z,103.97
2019-02-02T22:18:02.633Z,109.87
2019-02-02T22:20:31.470Z,101.33
2019-02-02T22:23:00.346Z,104.37
2019-02-02T22:25:31.382Z,106.37
2019-02-02T22:28:00.324Z,107.00
2019-02-02T22:30:33.876Z,102.27
2019-02-02T22:33:02.691Z,102.10
2019-02-02T22:35:31.880Z,111.40
2019-02-02T22:38:00.745Z,117.23
2019-02-02T22:40:30.146Z,124.30
2019-02-02T22:42:59.309Z,127.10
2019-02-02T22:45:28.121Z,128.67
2019-02-02T22:47:56.928Z,123.97
2019-02-02T22:50:27.217Z,128.60
2019-02-02T22:52:56.106Z,130.63
2019-02-02T22:55:25.591Z,133.90
2019-02-02T22:57:54.656Z,129.53
2019-02-02T23:00:30.709Z,133.93
2019-02-02T23:03:00.546Z,127.03
2019-02-02T23:05:35.124Z,121.60
2019-02-02T23:08:06.952Z,124.27
2019-02-02T23:10:47.600Z,132.60
2019-02-02T23:13:25.061Z,132.90
2019-02-02T23:16:08.730Z,128.13
2019-02-02T23:18:37.650Z,118.63
2019-02-02T23:21:06.737Z,131.13
2019-02-02T23:23:35.563Z,121.80
2019-02-02T23:26:04.495Z,126.67
2019-02-02T23:28:33.227Z,112.87
2019-02-02T23:31:01.910Z,130.87
2019-02-02T23:33:30.664Z,126.93
2019-02-02T23:36:00.080Z,113.50
2019-02-02T23:38:29.185Z,119.90
2019-02-02T23:40:57.992Z,119.23
2019-02-02T23:43:26.967Z,133.27
2019-02-02T23:45:56.203Z,113.20
2019-02-02T23:48:25.062Z,113.60
2019-02-02T23:50:54.225Z,124.93
2019-02-02T23:53:22.984Z,131.87
2019-02-02T23:55:51.819Z,125.97
2019-02-02T23:58:20.941Z,130.77
